createdAt,value
2019-04-14T00:00:22.973Z,27.85
2019-04-14T00:03:04.932Z,27.07
2019-04-14T00:05:36.990Z,22.75
2019-04-14T00:08:11.898Z,23.85
2019-04-14T00:10:44.245Z,19.05
2019-04-14T00:13:17.408Z,18.23
2019-04-14T00:15:50.740Z,17.87
2019-04-14T00:18:22.994Z,16.60
2019-04-14T00:20:57.732Z,17.48
2019-04-14T00:23:30.425Z,19.05
2019-04-14T00:26:05.199Z,17.67
2019-04-14T00:28:36.748Z,17.15
2019-04-14T00:33:38.923Z,17.10
2019-04-14T00:36:11.686Z,22.37
2019-04-14T00:38:45.594Z,20.02
2019-04-14T00:41:18.495Z,18.20
2019-04-14T00:43:52.719Z,17.80
2019-04-14T00:46:31.258Z,19.67
2019-04-14T00:49:02.815Z,17.50
2019-04-14T00:51:36.767Z,16.12
2019-04-14T00:54:08.756Z,20.48
2019-04-14T00:56:41.534Z,14.65
2019-04-14T00:59:13.628Z,17.67
2019-04-14T01:01:45.920Z,16.85
2019-04-14T13:56:06.950Z,11.40
2019-04-14T13:58:40.614Z,9.60
2019-04-14T14:01:12.742Z,10.35
2019-04-14T14:03:45.092Z,10.03
2019-04-14T14:06:16.798Z,9.20
2019-04-14T14:08:50.229Z,9.43
2019-04-14T14:11:23.116Z,8.98
2019-04-14T14:13:55.313Z,9.15
2019-04-14T14:16:31.864Z,9.48
2019-04-14T14:19:04.251Z,8.85
2019-04-14T14:21:37.252Z,8.88
2019-04-14T14:24:09.594Z,9.40
2019-04-14T14:26:57.242Z,9.58
2019-04-14T14:29:28.853Z,9.55
2019-04-14T14:32:02.222Z,9.00
2019-04-14T14:34:33.765Z,9.98
2019-04-14T14:37:11.827Z,9.90
2019-04-14T14:39:43.688Z,9.60
2019-04-14T14:42:22.640Z,10.15
2019-04-14T14:44:55.331Z,13.62
2019-04-14T14:47:29.117Z,10.32
2019-04-14T14:50:04.183Z,9.05
2019-04-14T14:52:36.784Z,10.35
2019-04-14T14:55:09.205Z,9.45
2019-04-14T14:57:46.726Z,12.15
2019-04-14T15:00:19.537Z,9.45
2019-04-14T15:02:51.451Z,12.33
2019-04-14T15:05:23.427Z,9.23
2019-04-14T15:07:55.205Z,10.43
2019-04-14T15:10:34.712Z,11.50
2019-04-14T15:13:11.258Z,11.25
2019-04-14T15:15:42.688Z,11.85
2019-04-14T15:20:47.840Z,10.65
2019-04-14T15:23:25.105Z,13.78
2019-04-14T15:25:52.065Z,14.05
2019-04-14T15:28:25.813Z,11.25
2019-04-14T15:31:02.011Z,11.20
2019-04-14T15:33:33.836Z,11.05
2019-04-14T15:36:07.140Z,11.63
2019-04-14T15:38:40.244Z,11.60
2019-04-14T15:41:11.929Z,11.33
2019-04-14T15:43:51.023Z,11.90
2019-04-14T15:46:30.328Z,10.65
2019-04-14T15:49:02.111Z,11.80
2019-04-14T15:51:34.167Z,10.95
2019-04-14T15:54:05.936Z,10.63
2019-04-14T15:56:39.855Z,11.10
2019-04-14T15:59:12.650Z,11.40
2019-04-14T16:01:45.622Z,11.22
2019-04-14T16:04:18.712Z,10.43
2019-04-14T16:06:51.818Z,10.85
2019-04-14T16:09:24.586Z,10.63
2019-04-14T16:12:04.142Z,12.70
2019-04-14T16:14:36.621Z,10.40
2019-04-14T16:17:14.618Z,12.03
2019-04-14T16:19:47.181Z,10.63
2019-04-14T16:22:19.643Z,10.45
2019-04-14T16:24:50.911Z,11.93
2019-04-14T16:30:00.891Z,10.65
2019-04-14T16:32:33.975Z,11.68
2019-04-14T16:35:08.948Z,10.80
2019-04-14T16:37:40.203Z,11.90
2019-04-14T16:40:14.901Z,11.97
2019-04-14T16:42:46.817Z,11.50
2019-04-14T16:45:31.131Z,12.00
2019-04-14T16:48:02.901Z,13.05
2019-04-14T16:50:35.954Z,14.50
2019-04-14T16:53:08.959Z,11.78
2019-04-14T16:55:41.796Z,11.65
2019-04-14T16:58:14.730Z,11.25
2019-04-14T17:00:47.520Z,11.40
2019-04-14T17:03:23.499Z,12.30
2019-04-14T17:05:51.940Z,13.25
2019-04-14T17:08:23.843Z,11.70
2019-04-14T17:10:56.051Z,11.20
2019-04-14T17:13:29.288Z,12.03
2019-04-14T17:16:03.290Z,10.30
2019-04-14T17:18:36.287Z,10.68
2019-04-14T17:21:09.969Z,10.25
2019-04-14T17:23:43.476Z,10.43
2019-04-14T17:26:16.459Z,10.55
2019-04-14T17:28:49.666Z,9.78
2019-04-14T17:31:24.274Z,10.32
2019-04-14T17:34:02.487Z,9.48
2019-04-14T17:36:41.835Z,10.88
2019-04-14T17:39:14.819Z,10.82
2019-04-14T17:41:47.085Z,10.82
2019-04-14T17:44:20.181Z,10.28
2019-04-14T17:46:54.614Z,14.93
2019-04-14T17:49:28.882Z,10.20
2019-04-14T17:52:01.875Z,10.53
2019-04-14T17:54:37.603Z,10.90
2019-04-14T17:57:12.595Z,10.30
2019-04-14T17:59:49.992Z,11.83
2019-04-14T18:02:24.341Z,9.95
2019-04-14T18:04:57.359Z,10.88
2019-04-14T18:07:30.401Z,11.05
2019-04-14T18:10:04.584Z,10.48
2019-04-14T18:12:37.785Z,13.05
2019-04-14T18:15:21.599Z,10.28
2019-04-14T18:17:56.213Z,11.53
2019-04-14T18:20:29.151Z,11.30
2019-04-14T18:23:00.654Z,11.25
2019-04-14T18:25:32.104Z,10.95
2019-04-14T18:28:08.011Z,13.08
2019-04-14T18:30:48.347Z,11.35
2019-04-14T18:33:22.817Z,10.72
2019-04-14T18:35:58.650Z,12.47
2019-04-14T18:38:37.613Z,10.70
2019-04-14T18:41:12.759Z,10.60
2019-04-14T18:43:45.708Z,10.98
2019-04-14T18:46:18.798Z,10.63
2019-04-14T18:48:51.670Z,11.65
2019-04-14T18:51:24.760Z,12.18
2019-04-14T18:53:57.729Z,10.70
2019-04-14T18:56:31.871Z,10.88
2019-04-14T18:59:04.675Z,11.50
2019-04-14T19:01:37.592Z,10.98
2019-04-14T19:04:09.409Z,12.43
2019-04-14T19:06:47.892Z,11.43
2019-04-14T19:09:19.340Z,11.93
2019-04-14T19:14:24.308Z,11.30
2019-04-14T19:16:57.718Z,11.35
2019-04-14T19:19:35.813Z,11.40
2019-04-14T19:22:08.479Z,11.88
2019-04-14T19:24:40.423Z,11.25
2019-04-14T19:27:11.846Z,11.90
2019-04-14T19:29:43.591Z,11.83
2019-04-14T19:32:14.789Z,11.97
2019-04-14T19:37:17.817Z,11.65
2019-04-14T19:39:49.822Z,12.33
2019-04-14T19:42:21.049Z,12.03
2019-04-14T19:47:29.287Z,12.18
2019-04-14T19:50:00.846Z,11.45
2019-04-14T19:52:32.667Z,11.40
2019-04-14T19:55:04.173Z,11.45
2019-04-14T19:57:38.787Z,10.38
2019-04-14T20:00:11.336Z,11.12
2019-04-14T20:02:42.897Z,11.85
2019-04-14T20:05:14.447Z,11.18
2019-04-14T20:07:45.731Z,11.22
2019-04-14T20:10:18.490Z,10.72
2019-04-14T20:12:50.117Z,11.53
2019-04-14T20:15:29.626Z,12.65
2019-04-14T20:18:02.375Z,11.53
2019-04-14T20:20:41.489Z,11.88
2019-04-14T20:23:12.508Z,10.88
2019-04-14T20:25:51.987Z,11.50
2019-04-14T20:28:25.255Z,11.80
2019-04-14T20:30:58.268Z,11.50
2019-04-14T20:33:35.956Z,12.78
2019-04-14T20:36:08.687Z,11.45
2019-04-14T20:38:40.254Z,11.97
2019-04-14T20:41:11.963Z,11.45
2019-04-14T20:43:43.714Z,11.50
2019-04-14T20:46:15.129Z,12.07
2019-04-14T20:48:46.720Z,11.33
2019-04-14T20:51:18.518Z,11.25
2019-04-14T20:53:50.535Z,11.53
2019-04-14T20:56:22.625Z,12.43
2019-04-14T20:58:53.752Z,11.28
2019-04-14T21:01:26.203Z,11.57
2019-04-14T21:03:58.332Z,11.78
2019-04-14T21:06:31.395Z,12.50
2019-04-14T21:09:07.392Z,12.03
2019-04-14T21:11:40.134Z,12.07
2019-04-14T21:14:19.069Z,11.83
2019-04-14T21:16:56.975Z,10.75
2019-04-14T21:19:29.744Z,11.30
2019-04-14T21:22:02.645Z,11.12
2019-04-14T21:24:35.083Z,11.38
2019-04-14T21:27:07.379Z,11.75
2019-04-14T21:29:46.827Z,11.80
2019-04-14T21:32:19.559Z,11.08
2019-04-14T21:34:52.494Z,11.33
2019-04-14T21:37:31.921Z,11.80
2019-04-14T21:40:09.836Z,12.55
2019-04-14T21:42:42.532Z,11.57
2019-04-14T21:45:14.533Z,12.28
2019-04-14T21:47:52.892Z,11.70
2019-04-14T21:50:24.551Z,11.97
2019-04-14T21:52:58.675Z,12.15
2019-04-14T21:55:30.042Z,12.10
2019-04-14T21:58:02.896Z,11.78
2019-04-14T22:00:38.457Z,12.35
2019-04-14T22:03:12.843Z,12.45
2019-04-14T22:05:45.868Z,11.93
2019-04-14T22:08:25.103Z,12.30
2019-04-14T22:10:56.248Z,12.95
2019-04-14T22:13:28.301Z,13.25
2019-04-14T22:16:00.164Z,12.05
2019-04-14T22:18:31.562Z,13.40
2019-04-14T22:21:03.647Z,11.95
2019-04-14T22:23:35.454Z,12.93
2019-04-14T22:26:07.191Z,12.68
2019-04-14T22:28:38.948Z,11.85
2019-04-14T22:31:10.442Z,12.23
2019-04-14T22:33:41.972Z,12.25
2019-04-14T22:36:13.701Z,12.35
2019-04-14T22:38:45.255Z,12.45
2019-04-14T22:43:46.833Z,12.43
2019-04-14T22:48:53.741Z,12.47
2019-04-14T22:51:26.910Z,11.60
2019-04-14T22:53:58.491Z,12.37
2019-04-14T22:56:39.296Z,11.63
2019-04-14T22:59:01.499Z,12.95
2019-04-14T23:01:34.133Z,12.13
2019-04-14T23:04:07.043Z,12.18
2019-04-14T23:06:38.017Z,12.47
2019-04-14T23:09:21.030Z,12.60
2019-04-14T23:11:54.238Z,12.18
2019-04-14T23:14:26.789Z,12.45
2019-04-14T23:16:59.489Z,12.47
2019-04-14T23:19:32.177Z,12.93
2019-04-14T23:22:04.912Z,13.35
2019-04-14T23:24:40.302Z,12.78
2019-04-14T23:27:11.650Z,13.53
2019-04-14T23:29:43.007Z,12.78
2019-04-14T23:32:16.270Z,13.35
2019-04-14T23:34:47.942Z,13.75
2019-04-14T23:37:19.314Z,14.15
2019-04-14T23:39:50.999Z,13.35
2019-04-14T23:42:22.448Z,12.95
2019-04-14T23:47:24.309Z,15.25
2019-04-14T23:49:55.973Z,11.73
2019-04-14T23:52:28.079Z,13.20
2019-04-14T23:54:59.429Z,13.78
2019-04-14T23:57:31.107Z,13.35
